CST,Max TemperatureF,Mean TemperatureF,Min TemperatureF,Max Dew PointF,MeanDew PointF,Min DewpointF,Max Humidity, Mean Humidity, Min Humidity, Max Sea Level PressureIn, Mean Sea Level PressureIn, Min Sea Level PressureIn, Max VisibilityMiles, Mean VisibilityMiles, Min VisibilityMiles, Max Wind SpeedMPH, Mean Wind SpeedMPH, Max Gust SpeedMPH,PrecipitationIn, CloudCover, Events, WindDirDegrees
2013-2-1,49,40,31,29,22,14,70,51,31,30.50,30.39,30.29,10,10,10,16,8,21,0.00,0,,68
2013-2-2,64,48,31,45,35,24,89,66,43,30.28,30.23,30.19,10,10,10,20,4,28,T,2,,291
2013-2-3,66,48,30,35,32,26,92,58,24,30.30,30.22,30.10,10,10,10,17,3,22,0.00,0,,301
2013-2-4,55,49,43,52,44,33,83,69,54,30.09,29.97,29.89,10,8,0,9,4,14,0.02,5,Fog-Rain,144
2013-2-5,69,56,43,52,49,43,100,75,49,30.07,29.99,29.93,10,9,5,8,1,10,0.00,5,,353
2013-2-6,57,50,42,52,48,41,100,90,80,30.16,30.07,29.99,10,4,0,10,4,13,0.01,7,Fog-Rain,70
2013-2-7,65,59,52,56,53,51,100,84,67,30.00,29.94,29.88,10,7,2,12,3,15,0.00,7,,185
2013-2-8,60,50,39,54,44,35,100,70,40,30.26,30.13,29.95,10,9,6,17,9,25,0.00,4,,13
2013-2-9,54,44,34,46,38,32,92,77,61,30.28,30.15,29.97,10,8,3,13,7,17,0.00,4,,82
2013-2-10,69,62,54,61,54,36,100,71,42,30.01,29.86,29.79,10,7,0,15,7,21,1.51,6,Fog-Rain-Thunderstorm,183
2013-2-11,60,54,48,47,39,34,93,65,37,30.18,30.12,30.02,10,10,10,14,4,18,0.05,6,Rain,24
2013-2-12,48,46,44,46,43,41,92,91,89,30.14,29.93,29.84,10,7,2,18,7,24,0.43,7,Rain-Thunderstorm,46
2013-2-13,52,44,36,43,39,34,96,79,61,30.10,30.01,29.89,10,10,5,13,6,17,T,6,Rain,294
2013-2-14,63,47,31,41,35,30,100,66,32,30.15,30.09,30.05,10,10,7,14,3,17,0.00,0,,231
2013-2-15,55,46,36,36,31,23,92,64,35,30.30,30.22,30.09,10,10,10,16,7,22,0.00,2,,332
2013-2-16,49,39,28,25,20,11,78,50,21,30.35,30.30,30.26,10,10,10,20,6,29,0.00,1,,295
2013-2-17,66,47,28,42,30,21,78,55,31,30.25,30.16,30.05,10,10,10,18,8,29,0.00,0,,169
2013-2-18,66,58,49,58,50,40,93,75,56,30.07,29.92,29.78,10,10,2,29,12,38,0.33,6,Rain-Thunderstorm,186
2013-2-19,59,46,33,39,31,24,89,59,28,30.33,30.23,30.07,10,10,3,13,4,16,0.00,0,,344
2013-2-20,46,41,35,36,29,22,82,61,40,30.30,30.19,30.07,10,10,10,20,9,24,0.02,6,Rain,58
2013-2-21,58,48,37,55,38,27,100,80,59,30.04,29.83,29.66,10,8,1,21,9,24,0.26,8,Rain-Thunderstorm,80
2013-2-22,47,42,36,41,38,36,100,88,76,30.12,30.04,29.92,10,6,0,10,3,14,0.00,6,Fog,339
2013-2-23,58,45,31,39,34,29,92,68,43,30.08,30.02,29.96,10,10,7,12,4,16,0.00,0,,23
2013-2-24,64,47,30,38,34,28,96,66,36,30.05,29.95,29.78,10,10,5,15,6,24,0.00,0,,78
2013-2-25,56,50,44,54,48,34,100,81,61,29.76,29.51,29.36,10,7,0,20,8,24,0.37,7,Fog-Rain-Thunderstorm,39
2013-2-26,51,42,32,36,33,31,100,76,52,29.93,29.69,29.49,10,10,10,23,11,32,0.00,5,,253
2013-2-27,57,43,28,36,31,27,100,69,38,30.09,30.01,29.93,10,10,7,18,5,26,T,1,,285
2013-2-28,55,44,32,31,27,24,82,57,32,30.19,30.14,30.09,10,10,10,16,7,23,0.00,0,,289